Latest Weather Observations for Roebourne Airport

IDW60801

Issued at 5:32 am WST Sunday 26 April 2015 (issued every 30 minutes, with the page automatically refreshed every 10 minutes)

About weather observations | Map of weather stations | Latest weather observations for WA | Other Formats
Station Details ID: 004090 Name: ROEBOURNE AERO Lat: -20.76 Lon: 117.16 Height: 10.7 m
Data from the previous 72 hours. | See also: Recent months at Roebourne Airport
Date/Time
WST
Temp
°C
App
Temp
°C
Dew
Point
Rel
Hum
%
Delta-T
°C
Wind Press
QNH
hPa
Press
MSL
hPa
Rain
since 9 am
mm
Dir
 
Spd
km/h
Gust
km/h
Spd
kts
Gust
kts
26/05:30am 23.6 18.0 7.3 35 8.5 ESE 26 33 14 18 1014.6 1014.5 0.0
26/05:00am 24.0 18.1 7.6 35 8.6 E 28 35 15 19 1014.4 1014.3 0.0
26/04:30am 24.3 18.9 7.9 35 8.7 E 26 35 14 19 1014.3 1014.2 0.0
26/04:00am 24.6 20.1 8.5 36 8.6 ESE 22 30 12 16 1014.5 1014.4 0.0
26/03:30am 24.6 20.2 9.0 37 8.4 ESE 22 32 12 17 1014.3 1014.2 0.0
26/03:00am 24.9 19.4 9.2 37 8.5 ESE 28 35 15 19 1014.2 1014.1 0.0
26/02:30am 25.1 19.8 9.8 38 8.4 E 28 35 15 19 1014.3 1014.2 0.0
26/02:00am 25.0 20.5 10.1 39 8.2 ESE 24 30 13 16 1014.3 1014.2 0.0
26/01:30am 24.9 21.1 11.1 42 7.8 E 22 30 12 16 1014.4 1014.3 0.0
26/01:00am 24.9 21.6 11.5 43 7.6 E 20 24 11 13 1014.9 1014.8 0.0
26/12:30am 24.9 21.6 11.5 43 7.6 ENE 20 26 11 14 1015.0 1014.9 0.0
26/12:00am 24.9 21.6 11.5 43 7.6 E 20 26 11 14 1015.2 1015.1 0.0
 
Date/Time
WST
Temp
°C
App
Temp
°C
Dew
Point
Rel
Hum
%
Delta-T
°C
Wind Press
QNH
hPa
Press
MSL
hPa
Rain
since 9 am
mm
Dir
 
Spd
km/h
Gust
km/h
Spd
kts
Gust
kts
25/11:30pm 25.0 21.8 11.9 44 7.5 E 20 24 11 13 1015.2 1015.1 0.0
25/11:00pm 25.2 22.1 12.1 44 7.5 E 20 26 11 14 1015.2 1015.1 0.0
25/10:30pm 25.0 22.0 11.9 44 7.5 ENE 19 22 10 12 1015.5 1015.4 0.0
25/10:00pm 24.7 22.7 12.6 47 7.0 E 15 20 8 11 1015.7 1015.6 0.0
25/09:30pm 24.6 23.0 12.9 48 6.8 ESE 13 15 7 8 1015.8 1015.7 0.0
25/09:00pm 24.1 23.0 13.0 50 6.4 ESE 11 13 6 7 1015.6 1015.5 0.0
25/08:30pm 25.1 23.1 12.7 46 7.2 ENE 15 17 8 9 1015.2 1015.1 0.0
25/08:00pm 25.6 23.9 12.4 43 7.6 E 13 17 7 9 1015.2 1015.1 0.0
25/07:30pm 25.8 23.2 11.9 42 7.9 ENE 17 20 9 11 1014.9 1014.8 0.0
25/07:00pm 26.5 23.2 11.0 38 8.8 E 19 24 10 13 1014.4 1014.3 0.0
25/06:30pm 27.1 23.5 10.7 35 9.2 E 20 26 11 14 1013.8 1013.7 0.0
25/06:00pm 27.7 23.8 10.9 35 9.5 E 22 28 12 15 1013.8 1013.7 0.0
25/05:30pm 28.4 24.4 10.6 33 10.1 E 22 30 12 16 1013.3 1013.3 0.0
25/05:00pm 29.2 25.1 11.3 33 10.3 E 24 30 13 16 1013.1 1013.1 0.0
25/04:30pm 29.0 25.3 12.8 36 9.5 ENE 24 32 13 17 1012.9 1012.9 0.0
25/04:02pm 30.1 24.9 10.1 29 11.3 E 28 46 15 25 1012.6 1012.6 0.0
25/04:00pm 30.0 24.4 10.0 29 11.3 E 30 46 16 25 1012.6 1012.6 0.0
25/03:30pm 31.2 25.5 11.1 29 11.6 ENE 32 43 17 23 1012.5 1012.5 0.0
25/03:00pm 31.3 25.4 10.6 28 11.9 ENE 32 37 17 20 1012.4 1012.4 0.0
25/02:30pm 30.5 24.4 9.9 28 11.7 E 32 41 17 22 1012.5 1012.5 0.0
25/02:00pm 30.6 24.7 10.5 29 11.5 E 32 46 17 25 1012.7 1012.7 0.0
25/01:30pm 30.7 24.7 10.1 28 11.7 E 32 44 17 24 1012.9 1012.9 0.0
25/01:00pm 29.8 23.6 9.9 29 11.2 E 33 48 18 26 1013.4 1013.4 0.0
25/12:30pm 30.1 23.1 10.1 29 11.3 E 37 50 20 27 1013.7 1013.6 0.0
25/12:00pm 29.7 23.0 9.8 29 11.2 E 35 50 19 27 1014.0 1013.9 0.0
25/11:53am 29.8 23.2 9.9 29 11.2 E 35 54 19 29 1013.9 1013.8 0.0
25/11:30am 28.8 21.3 9.5 30 10.8 E 39 52 21 28 1014.1 1014.0 0.0
25/11:00am 28.6 21.2 9.8 31 10.5 E 39 50 21 27 1014.6 1014.5 0.0
25/10:30am 28.4 20.9 9.6 31 10.5 E 39 50 21 27 1014.9 1014.8 0.0
25/10:00am 26.9 19.4 9.3 33 9.7 E 39 54 21 29 1015.2 1015.1 0.0
25/09:30am 26.5 18.6 9.4 34 9.4 E 41 52 22 28 1015.3 1015.2 0.0
25/09:00am 26.0 18.2 9.8 36 8.9 E 41 54 22 29 1015.1 1015.0 0.0
25/08:30am 25.4 19.1 9.7 37 8.6 ESE 33 44 18 24 1015.0 1014.9 0.0
25/08:00am 23.8 18.3 10.5 43 7.3 ESE 30 39 16 21 1014.7 1014.6 0.0
25/07:30am 22.8 18.5 10.6 46 6.7 E 24 33 13 18 1014.4 1014.3 0.0
25/07:00am 22.6 18.2 10.4 46 6.7 E 24 32 13 17 1014.1 1014.0 0.0
25/06:30am 22.8 18.5 10.6 46 6.7 E 24 33 13 18 1013.8 1013.7 0.0
25/06:00am 22.8 18.4 10.3 45 6.8 E 24 33 13 18 1013.1 1013.1 0.0
25/05:30am 22.9 18.1 10.3 45 6.9 ESE 26 33 14 18 1012.9 1012.9 0.0
25/05:00am 23.1 18.8 10.9 46 6.8 ESE 24 32 13 17 1012.6 1012.6 0.0
25/04:30am 23.6 19.5 11.3 46 6.9 ESE 24 33 13 18 1012.6 1012.6 0.0
25/04:00am 24.1 19.7 11.8 46 7.0 ESE 26 33 14 18 1012.6 1012.6 0.0
25/03:30am 24.2 20.5 12.8 49 6.6 ESE 24 30 13 16 1012.5 1012.5 0.0
25/03:00am 24.1 21.1 13.6 52 6.1 ESE 22 32 12 17 1012.6 1012.6 0.0
25/02:30am 24.3 21.9 13.8 52 6.2 ESE 19 26 10 14 1012.7 1012.7 0.0
25/02:00am 24.5 21.9 13.7 51 6.3 ESE 20 26 11 14 1012.7 1012.7 0.0
25/01:30am 24.8 22.4 13.7 50 6.5 ESE 19 22 10 12 1012.8 1012.8 0.0
25/01:00am 24.7 22.2 13.6 50 6.5 ESE 19 22 10 12 1013.1 1013.1 0.0
25/12:30am 24.2 22.6 14.0 53 6.0 ESE 15 19 8 10 1013.3 1013.3 0.0
25/12:00am 24.0 22.0 13.8 53 6.0 ESE 17 20 9 11 1013.4 1013.4 0.0
 
Date/Time
WST
Temp
°C
App
Temp
°C
Dew
Point
Rel
Hum
%
Delta-T
°C
Wind Press
QNH
hPa
Press
MSL
hPa
Rain
since 9 am
mm
Dir
 
Spd
km/h
Gust
km/h
Spd
kts
Gust
kts
24/11:30pm 24.4 22.4 13.9 52 6.2 ESE 17 20 9 11 1013.7 1013.6 0.0
24/11:00pm 25.0 22.4 13.9 50 6.5 ESE 20 26 11 14 1013.8 1013.7 0.0
24/10:30pm 25.0 22.4 13.9 50 6.5 ESE 20 24 11 13 1013.9 1013.8 0.0
24/10:00pm 25.4 22.8 13.9 49 6.8 ESE 20 28 11 15 1014.0 1013.9 0.0
24/09:30pm 25.1 22.7 13.9 49 6.6 SE 19 26 10 14 1014.1 1014.0 0.0
24/09:00pm 24.5 22.3 14.3 53 6.0 SE 19 24 10 13 1014.1 1014.0 0.0
24/08:30pm 24.5 22.4 14.6 54 5.9 ESE 19 24 10 13 1014.0 1013.9 0.0
24/08:00pm 24.8 22.7 14.6 53 6.1 ESE 19 28 10 15 1013.8 1013.7 0.0
24/07:30pm 25.5 22.3 14.3 50 6.7 ESE 24 33 13 18 1013.4 1013.4 0.0
24/07:00pm 25.9 22.8 14.4 49 6.9 ESE 24 32 13 17 1013.1 1013.1 0.0
24/06:30pm 26.5 22.9 14.3 47 7.3 ESE 26 33 14 18 1012.7 1012.7 0.0
24/06:00pm 27.4 24.3 14.4 45 7.8 ESE 24 30 13 16 1012.4 1012.4 0.0
24/05:30pm 28.2 24.2 14.1 42 8.4 ESE 28 35 15 19 1012.2 1012.2 0.0
24/05:00pm 28.9 24.4 13.9 39 9.0 ESE 30 39 16 21 1011.9 1011.9 0.0
24/04:30pm 29.6 24.9 14.2 39 9.3 E 32 41 17 22 1011.9 1011.9 0.0
24/04:00pm 29.4 25.1 14.4 40 9.1 E 30 41 16 22 1011.7 1011.7 0.0
24/03:30pm 29.5 24.9 14.5 40 9.1 E 32 43 17 23 1011.7 1011.7 0.0
24/03:00pm 30.0 25.0 14.1 37 9.6 E 33 46 18 25 1011.7 1011.7 0.0
24/02:30pm 30.2 26.0 14.7 39 9.4 E 30 46 16 25 1011.7 1011.7 0.0
24/02:00pm 29.3 24.3 13.9 39 9.2 E 33 46 18 25 1011.7 1011.7 0.0
24/01:30pm 29.9 25.6 16.0 43 8.6 ESE 33 46 18 25 1011.9 1011.9 0.0
24/01:00pm 29.3 25.1 14.7 41 8.9 E 30 43 16 23 1012.2 1012.2 0.0
24/12:30pm 28.4 23.9 15.3 45 8.0 E 33 46 18 25 1012.7 1012.7 0.0
24/12:00pm 27.6 22.8 14.6 45 7.8 E 33 43 18 23 1012.9 1012.9 0.0
24/11:30am 26.6 21.7 14.4 47 7.3 ESE 33 46 18 25 1013.4 1013.4 0.0
24/11:00am 26.9 22.3 15.0 48 7.2 ESE 33 43 18 23 1013.7 1013.6 0.0
24/10:39am 25.9 21.0 13.7 47 7.2 ESE 32 52 17 28 1014.0 1013.9 0.0
24/10:30am 26.0 20.8 14.5 49 6.9 ESE 35 48 19 26 1014.1 1014.0 0.0
24/10:00am 24.4 18.5 13.6 51 6.3 ESE 37 48 20 26 1014.4 1014.3 0.0
24/09:30am 23.4 17.8 13.3 53 5.8 ESE 35 46 19 25 1014.6 1014.5 0.0
24/09:00am 23.6 17.9 12.9 51 6.2 ESE 35 48 19 26 1014.6 1014.5 0.0
24/08:30am 23.3 17.6 12.9 52 6.0 ESE 35 50 19 27 1014.5 1014.4 0.0
24/08:00am 22.7 16.5 12.6 53 5.8 ESE 37 48 20 26 1014.3 1014.2 0.0
24/07:30am 21.6 16.2 12.7 57 5.1 ESE 33 43 18 23 1014.0 1013.9 0.0
24/07:00am 21.4 16.3 13.1 59 4.7 ESE 32 43 17 23 1013.6 1013.5 0.0
24/06:30am 21.2 16.1 13.1 60 4.6 ESE 32 39 17 21 1013.3 1013.3 0.0
24/06:00am 21.1 17.3 13.5 62 4.4 ESE 26 35 14 19 1013.1 1013.1 0.0
24/05:30am 21.4 17.3 13.8 62 4.4 ESE 28 35 15 19 1013.0 1013.0 0.0
24/05:00am 21.9 17.0 13.8 60 4.7 ESE 32 37 17 20 1012.9 1012.9 0.0
24/04:30am 22.1 17.7 14.0 60 4.7 ESE 30 39 16 21 1012.9 1012.9 0.0
24/04:00am 22.3 18.6 13.9 59 4.9 ESE 26 39 14 21 1012.9 1012.9 0.0
24/03:30am 22.4 19.2 14.3 60 4.7 ESE 24 32 13 17 1012.9 1012.9 0.0
24/03:00am 22.6 19.2 14.7 61 4.7 ESE 26 32 14 17 1013.0 1013.0 0.0
24/02:30am 22.8 20.7 15.1 62 4.6 ESE 20 26 11 14 1013.1 1013.1 0.0
24/02:00am 23.0 20.7 15.6 63 4.4 ESE 22 28 12 15 1013.1 1013.1 0.0
24/01:30am 22.7 21.7 16.7 69 3.7 ESE 17 20 9 11 1013.2 1013.2 0.0
24/01:00am 22.4 22.0 17.1 72 3.3 E 15 19 8 10 1013.3 1013.3 0.0
24/12:30am 22.4 22.4 17.3 73 3.1 E 13 17 7 9 1013.4 1013.4 0.0
24/12:00am 22.6 22.6 17.3 72 3.3 E 13 15 7 8 1013.6 1013.5 0.0
 
Date/Time
WST
Temp
°C
App
Temp
°C
Dew
Point
Rel
Hum
%
Delta-T
°C
Wind Press
QNH
hPa
Press
MSL
hPa
Rain
since 9 am
mm
Dir
 
Spd
km/h
Gust
km/h
Spd
kts
Gust
kts
23/11:30pm 22.7 22.8 17.4 72 3.3 E 13 15 7 8 1013.4 1013.4 0.0
23/11:00pm 22.6 23.4 18.2 76 2.8 E 11 13 6 7 1013.6 1013.5 0.0
23/10:30pm 22.8 23.9 18.1 75 2.9 E 9 13 5 7 1013.7 1013.6 0.0
23/10:00pm 22.7 24.3 18.3 76 2.8 E 7 9 4 5 1013.8 1013.7 0.0
23/09:30pm 22.8 23.9 17.9 74 3.1 E 9 11 5 6 1013.4 1013.4 0.0
23/09:00pm 23.1 24.6 18.0 73 3.2 ESE 7 9 4 5 1013.1 1013.1 0.0
23/08:30pm 23.4 23.5 17.4 69 3.7 ENE 13 17 7 9 1013.1 1013.1 0.0
23/08:00pm 23.6 23.8 17.6 69 3.7 ENE 13 17 7 9 1012.9 1012.9 0.0
23/07:30pm 23.7 23.2 17.7 69 3.7 ENE 17 20 9 11 1012.4 1012.4 0.0
23/07:00pm 24.6 23.7 16.8 62 4.8 E 17 26 9 14 1012.0 1012.0 0.0
23/06:30pm 25.7 24.6 16.3 56 5.8 ESE 17 22 9 12 1011.7 1011.7 0.0
23/06:00pm 25.9 24.3 15.9 54 6.1 ESE 19 26 10 14 1011.4 1011.4 0.0
23/05:30pm 26.2 23.5 15.6 52 6.4 ESE 24 32 13 17 1011.2 1011.2 0.0
23/05:00pm 26.7 23.3 15.7 51 6.7 E 28 35 15 19 1011.0 1011.0 0.0
23/04:30pm 27.7 24.4 16.0 49 7.2 E 28 39 15 21 1010.8 1010.8 0.0
23/04:00pm 27.9 24.7 16.2 49 7.2 E 28 33 15 18 1010.8 1010.8 0.0
23/03:30pm 27.6 23.9 15.9 49 7.2 E 30 35 16 19 1010.8 1010.8 0.0
23/03:00pm 27.9 24.8 16.5 50 7.1 E 28 37 15 20 1011.0 1011.0 0.0
23/02:30pm 27.3 23.6 16.0 50 6.9 E 30 39 16 21 1010.9 1010.9 0.0
23/02:00pm 27.2 23.8 15.9 50 6.9 E 28 41 15 22 1011.0 1011.0 0.0
23/01:30pm 27.3 24.1 16.3 51 6.8 E 28 35 15 19 1011.2 1011.2 0.0
23/01:00pm 27.2 24.3 16.2 51 6.8 E 26 35 14 19 1011.4 1011.4 0.0
23/12:30pm 26.4 22.6 15.8 52 6.5 E 30 39 16 21 1011.7 1011.7 0.0
23/12:00pm 26.1 22.1 15.2 51 6.6 E 30 39 16 21 1012.1 1012.1 0.0
23/11:30am 25.4 20.7 14.2 50 6.6 ESE 32 43 17 23 1012.4 1012.4 0.0
23/11:00am 24.5 19.6 14.3 53 6.0 ESE 33 43 18 23 1013.1 1013.1 0.0
23/10:30am 24.0 18.6 13.8 53 6.0 ESE 35 44 19 24 1013.2 1013.2 0.0
23/10:00am 23.2 18.1 13.1 53 5.8 ESE 32 41 17 22 1013.4 1013.4 0.0
23/09:30am 22.1 16.0 12.9 56 5.3 ESE 37 46 20 25 1013.7 1013.6 0.0
23/09:00am 21.0 15.5 12.4 58 4.8 ESE 33 43 18 23 1013.9 1013.8 6.2
23/08:30am 20.3 14.9 12.3 60 4.5 ESE 32 43 17 23 1013.8 1013.7 6.2
23/08:00am 19.2 13.6 12.0 63 4.0 ESE 33 43 18 23 1013.6 1013.5 6.2
23/07:30am 18.6 14.8 12.4 67 3.5 ESE 24 32 13 17 1013.3 1013.3 6.2
23/07:00am 17.3 14.5 12.6 74 2.6 ESE 19 22 10 12 1013.3 1013.3 6.2
23/06:30am 16.7 14.3 12.7 77 2.2 ESE 17 20 9 11 1013.0 1013.0 6.2
23/06:00am 17.3 14.3 12.6 74 2.6 ESE 20 26 11 14 1012.8 1012.8 6.2

Other Formats:

Comma delimited format used in spreadsheet applications
http://www.bom.gov.au/fwo/IDW60801/IDW60801.94308.axf

JavaScript Object Notation format (JSON) in row-major order
http://www.bom.gov.au/fwo/IDW60801/IDW60801.94308.json